Cowan, Tennessee
Current Conditions -  °F | °C
As of 1:15 PM on Friday 21 Nov 2014 (Local Time) from KBGF Reporting Station
Clear Clear  
Wind Chill: 57°   Ceiling: Unl
Heat Index: 57°   Visibility: 10mi
Dew Point: 32°   Wind: 5mph
Humidity: 38%   Direction: 260°W
Pressure: 30.36"   Gusts: NA
Location:  35.16°N, 86.01°W
Report Text: KBGF 211915Z AUTO 26004KT 10SM CLR 14/00 A3036 RMK
Loading
Personal Weather Stations






























Interactive Weather Map New forecast layout! Learn more

10-Day Weather Forecast

Advertisements
Track Severe Weather on mobile